Time;durP1;ratioP1;P1;durP2;ratioP2;P2;SDS_P1;SDS_P2;PMS_P1;PMS_P2;Temp;Humidity;BMP_temperature;BMP_pressure;BME280_temperature;BME280_humidity;BME280_pressure;Samples;Min_cycle;Max_cycle;Signal;HPM_P1;HPM_P2
2023/04/18 00:00:01;;;;;;;6.47;5.53;;;;;;;11.51;81.80;92873.53;515808;28;868;-54
2023/04/18 00:00:17;;;;;;;5.90;5.20;;;;;;;11.40;81.71;92847.09;515897;28;871;-56
2023/04/18 00:00:32;;;;;;;7.60;5.70;;;;;;;11.50;81.80;92861.72;515691;28;2469;-55
2023/04/18 00:00:48;;;;;;;9.15;5.82;;;;;;;11.49;81.69;92865.06;515812;28;841;-54
2023/04/18 00:01:03;;;;;;;7.57;5.60;;;;;;;11.49;81.61;92865.81;515806;28;1562;-55
2023/04/18 00:01:20;;;;;;;7.95;6.15;;;;;;;11.49;81.49;92868.56;515808;28;876;-56
2023/04/18 00:01:37;;;;;;;8.65;6.50;;;;;;;11.50;81.55;92866.56;515824;28;928;-56
2023/04/18 00:01:52;;;;;;;7.57;6.03;;;;;;;11.44;81.88;92861.97;515724;28;1620;-55
2023/04/18 00:02:07;;;;;;;7.37;6.00;;;;;;;11.44;81.71;92866.78;515865;28;839;-55
2023/04/18 00:02:23;;;;;;;6.70;5.72;;;;;;;11.43;81.94;92868.09;515751;28;863;-55
2023/04/18 00:02:38;;;;;;;7.47;5.47;;;;;;;11.42;82.05;92869.38;515896;28;781;-56
2023/04/18 00:02:54;;;;;;;9.70;5.47;;;;;;;11.40;82.05;92864.44;515760;28;976;-55
2023/04/18 00:03:09;;;;;;;9.27;5.77;;;;;;;11.34;82.20;92877.75;515918;28;802;-55
2023/04/18 00:03:25;;;;;;;8.60;5.93;;;;;;;11.26;82.46;92870.84;515810;28;1098;-55
2023/04/18 00:03:41;;;;;;;7.20;5.73;;;;;;;11.22;82.63;92870.50;516046;28;894;-55
2023/04/18 00:03:56;;;;;;;6.95;5.53;;;;;;;11.16;82.83;92865.22;515842;28;855;-54
2023/04/18 00:04:12;;;;;;;6.93;5.90;;;;;;;11.19;83.10;92871.63;515788;28;829;-52
2023/04/18 00:04:27;;;;;;;7.10;6.40;;;;;;;11.20;82.90;92867.56;515876;28;803;-53
2023/04/18 00:04:46;;;;;;;7.07;6.37;;;;;;;11.20;83.12;92871.06;515758;28;865;-55
2023/04/18 00:05:03;;;;;;;7.35;6.40;;;;;;;11.20;83.05;92868.31;515802;28;884;-56
2023/04/18 00:05:19;;;;;;;7.50;6.68;;;;;;;11.22;83.16;92870.50;515843;28;848;-56
2023/04/18 00:05:35;;;;;;;7.55;6.75;;;;;;;11.21;83.26;92869.78;515816;28;887;-55
2023/04/18 00:05:50;;;;;;;9.05;6.32;;;;;;;11.21;83.03;92874.56;515747;28;944;-55
2023/04/18 00:06:06;;;;;;;9.10;5.82;;;;;;;11.21;83.16;92864.25;515872;28;840;-54
2023/04/18 00:06:21;;;;;;;7.83;6.47;;;;;;;11.16;83.09;92872.75;515716;28;832;-55
2023/04/18 00:06:37;;;;;;;7.82;6.97;;;;;;;11.15;83.39;92874.06;515826;28;1695;-55
2023/04/18 00:06:52;;;;;;;8.27;6.73;;;;;;;11.17;83.64;92866.69;515770;28;773;-55
2023/04/18 00:07:08;;;;;;;8.57;7.00;;;;;;;11.18;83.62;92870.16;515898;28;793;-55
2023/04/18 00:07:24;;;;;;;8.47;7.57;;;;;;;11.19;83.43;92864.09;515763;28;881;-55
2023/04/18 00:07:40;;;;;;;8.55;7.50;;;;;;;11.20;83.44;92865.53;515880;28;844;-55
2023/04/18 00:07:57;;;;;;;8.57;7.10;;;;;;;11.22;83.49;92865.69;515816;28;843;-54
2023/04/18 00:08:13;;;;;;;7.95;6.93;;;;;;;11.21;83.50;92869.78;515690;28;920;-55
2023/04/18 00:08:28;;;;;;;7.97;7.18;;;;;;;11.23;83.32;92871.97;515871;28;876;-54
2023/04/18 00:08:45;;;;;;;8.20;7.10;;;;;;;11.22;83.35;92864.97;515778;28;836;-55
2023/04/18 00:09:01;;;;;;;8.70;7.65;;;;;;;11.21;83.29;92866.28;515602;28;921;-54
2023/04/18 00:09:16;;;;;;;8.50;7.60;;;;;;;11.19;83.58;92866.09;515830;28;856;-55
2023/04/18 00:09:31;;;;;;;8.67;7.50;;;;;;;11.19;83.46;92866.09;515726;28;996;-56
2023/04/18 00:09:47;;;;;;;10.13;7.53;;;;;;;11.16;83.41;92870.00;515822;28;785;-55
2023/04/18 00:10:06;;;;;;;9.48;7.68;;;;;;;11.08;83.73;92863.81;515716;28;1906;-55
2023/04/18 00:10:21;;;;;;;9.13;8.13;;;;;;;11.05;83.89;92868.44;515850;28;832;-54
2023/04/18 00:10:37;;;;;;;11.00;8.63;;;;;;;11.01;83.94;92865.34;515852;28;769;-55
2023/04/18 00:10:52;;;;;;;12.05;9.05;;;;;;;11.03;84.15;92875.81;515828;28;850;-54
2023/04/18 00:11:08;;;;;;;11.37;8.80;;;;;;;11.04;84.24;92860.72;515832;28;860;-55
2023/04/18 00:11:23;;;;;;;9.90;8.30;;;;;;;11.07;84.10;92870.63;515791;28;1171;-55
2023/04/18 00:11:39;;;;;;;8.70;7.80;;;;;;;11.10;84.09;92866.75;515819;28;819;-55
2023/04/18 00:11:55;;;;;;;8.27;7.47;;;;;;;11.13;83.92;92868.38;515773;28;853;-55
2023/04/18 00:12:10;;;;;;;8.37;7.47;;;;;;;11.16;84.00;92867.97;515800;28;888;-53
2023/04/18 00:12:25;;;;;;;8.68;7.75;;;;;;;11.19;83.92;92871.63;515805;28;1556;-55
2023/04/18 00:12:41;;;;;;;8.80;7.90;;;;;;;11.21;83.70;92866.28;515771;28;1515;-55
2023/04/18 00:12:57;;;;;;;8.48;7.57;;;;;;;11.23;83.78;92866.44;515773;28;955;-57
2023/04/18 00:13:12;;;;;;;8.80;7.60;;;;;;;11.24;83.69;92865.88;515721;28;863;-54
2023/04/18 00:13:27;;;;;;;8.90;7.70;;;;;;;11.26;83.60;92865.31;515833;28;907;-54
2023/04/18 00:13:46;;;;;;;8.10;7.30;;;;;;;11.27;83.64;92867.50;515794;28;762;-54
2023/04/18 00:14:02;;;;;;;8.07;7.25;;;;;;;11.28;83.43;92863.44;515771;28;945;-55
2023/04/18 00:14:18;;;;;;;9.75;7.57;;;;;;;11.31;83.38;92869.84;515843;28;782;-55
2023/04/18 00:14:36;;;;;;;9.90;7.63;;;;;;;11.31;83.41;92867.09;515766;28;921;-55
2023/04/18 00:14:51;;;;;;;9.85;8.00;;;;;;;11.32;83.46;92863.03;515806;28;1702;-54
2023/04/18 00:15:07;;;;;;;9.40;8.05;;;;;;;11.27;83.24;92866.75;515873;28;848;-54
2023/04/18 00:15:23;;;;;;;8.90;7.93;;;;;;;11.32;83.30;92868.56;515791;28;1584;-54
2023/04/18 00:15:40;;;;;;;9.32;7.70;;;;;;;11.33;83.23;92872.78;515844;28;884;-55
2023/04/18 00:15:56;;;;;;;8.32;6.90;;;;;;;11.32;83.14;92868.56;516187;28;1147;-55
2023/04/18 00:16:12;;;;;;;7.67;6.83;;;;;;;11.33;83.05;92870.75;517777;28;1060;-55
2023/04/18 00:16:27;;;;;;;7.55;6.68;;;;;;;11.31;82.94;92858.81;517865;28;878;-54
2023/04/18 00:16:43;;;;;;;7.30;6.57;;;;;;;11.35;83.09;92867.41;517771;28;868;-53
2023/04/18 00:16:58;;;;;;;7.20;6.40;;;;;;;11.36;83.14;92871.66;517884;28;1679;-54
2023/04/18 00:17:14;;;;;;;7.43;6.60;;;;;;;11.36;82.96;92868.88;517841;28;861;-55
2023/04/18 00:17:30;;;;;;;7.85;6.97;;;;;;;11.37;82.88;92864.81;517891;28;876;-55
2023/04/18 00:17:47;;;;;;;8.38;7.50;;;;;;;11.39;82.70;92870.53;517806;28;914;-52
2023/04/18 00:18:02;;;;;;;8.10;7.30;;;;;;;11.40;82.76;92869.22;517796;28;899;-55
2023/04/18 00:18:17;;;;;;;7.78;6.97;;;;;;;11.41;82.64;92865.16;517819;28;841;-54
2023/04/18 00:18:35;;;;;;;8.03;7.23;;;;;;;11.40;82.55;92867.19;517881;28;832;-53
2023/04/18 00:18:51;;;;;;;8.63;7.57;;;;;;;11.38;82.58;92867.03;517826;28;890;-54
2023/04/18 00:19:07;;;;;;;10.35;7.35;;;;;;;11.43;82.54;92868.09;517925;28;814;-52
2023/04/18 00:19:22;;;;;;;11.20;7.55;;;;;;;11.43;82.38;92868.09;517574;28;861;-54
2023/04/18 00:19:42;;;;;;;9.67;7.67;;;;;;;11.43;82.57;92870.84;517644;28;769;-55
2023/04/18 00:19:57;;;;;;;8.90;7.30;;;;;;;11.44;82.50;92870.28;517560;28;882;-55
2023/04/18 00:20:12;;;;;;;8.10;7.18;;;;;;;11.45;82.45;92868.25;517765;28;865;-55
2023/04/18 00:20:28;;;;;;;7.30;6.60;;;;;;;11.44;82.27;92870.28;517902;28;781;-54
2023/04/18 00:20:44;;;;;;;7.50;6.70;;;;;;;11.43;82.35;92863.28;517816;28;789;-54
2023/04/18 00:21:00;;;;;;;7.28;6.50;;;;;;;11.43;82.13;92863.28;517823;28;935;-55
2023/04/18 00:21:16;;;;;;;8.05;6.57;;;;;;;11.42;82.16;92866.63;517886;28;818;-55
2023/04/18 00:21:31;;;;;;;9.00;7.10;;;;;;;11.32;82.34;92852.72;517795;28;943;-55
2023/04/18 00:21:48;;;;;;;7.68;6.88;;;;;;;11.43;82.35;92873.63;517846;28;773;-55
2023/04/18 00:22:03;;;;;;;7.20;6.50;;;;;;;11.42;82.23;92870.13;517812;28;900;-55
2023/04/18 00:22:22;;;;;;;8.02;6.65;;;;;;;11.42;82.03;92869.38;517911;28;832;-55
2023/04/18 00:22:41;;;;;;;8.45;6.85;;;;;;;11.42;82.04;92866.63;517898;28;917;-55
2023/04/18 00:22:56;;;;;;;7.53;6.70;;;;;;;11.43;82.02;92873.63;517858;28;939;-54
2023/04/18 00:23:15;;;;;;;8.02;6.65;;;;;;;11.45;82.17;92868.25;517733;28;890;-55
2023/04/18 00:23:33;;;;;;;8.48;6.35;;;;;;;11.46;82.09;92872.47;517782;28;849;-55
2023/04/18 00:23:48;;;;;;;9.45;7.18;;;;;;;11.48;81.98;92871.91;517763;28;830;-56
2023/04/18 00:24:04;;;;;;;9.83;7.07;;;;;;;11.48;81.90;92874.69;517823;28;833;-55
2023/04/18 00:25:34;;;;;;;9.02;7.35;;;;;;;11.49;81.50;92876.13;517795;28;741;-55
2023/04/18 00:25:49;;;;;;;9.13;6.82;;;;;;;11.48;81.46;92871.91;517470;28;1258;-55
2023/04/18 00:26:05;;;;;;;6.97;6.20;;;;;;;11.48;81.67;92863.63;517904;28;853;-54
2023/04/18 00:26:20;;;;;;;7.07;6.25;;;;;;;11.49;81.70;92871.34;517772;28;1027;-55
2023/04/18 00:26:35;;;;;;;7.23;6.53;;;;;;;11.49;81.63;92868.56;517810;28;959;-54
2023/04/18 00:26:51;;;;;;;6.97;6.28;;;;;;;11.50;81.46;92874.84;517834;28;1029;-55
2023/04/18 00:27:06;;;;;;;7.13;6.03;;;;;;;11.50;81.46;92867.25;517825;28;858;-55
2023/04/18 00:27:22;;;;;;;7.30;6.20;;;;;;;11.50;81.62;92870.03;518018;28;1116;-54
2023/04/18 00:27:38;;;;;;;7.38;6.50;;;;;;;11.51;81.51;92868.75;517840;28;1527;-55
2023/04/18 00:27:53;;;;;;;7.30;6.30;;;;;;;11.53;81.42;92870.91;517676;28;892;-55
2023/04/18 00:28:08;;;;;;;7.20;6.43;;;;;;;11.53;81.37;92871.66;517853;28;872;-54
2023/04/18 00:28:24;;;;;;;9.00;6.82;;;;;;;11.53;81.23;92870.91;517773;28;927;-55
2023/04/18 00:28:39;;;;;;;9.97;6.90;;;;;;;11.52;81.08;92870.19;517765;28;889;-53
2023/04/18 00:28:55;;;;;;;9.00;6.60;;;;;;;11.51;81.13;92868.75;517843;28;825;-55
2023/04/18 00:29:10;;;;;;;7.07;5.97;;;;;;;11.51;81.04;92868.75;517876;28;864;-54
2023/04/18 00:29:25;;;;;;;7.00;6.30;;;;;;;11.50;81.01;92870.03;517861;28;956;-56
2023/04/18 00:29:41;;;;;;;7.32;6.63;;;;;;;11.49;81.23;92871.34;517801;28;939;-56
2023/04/18 00:29:56;;;;;;;7.80;6.77;;;;;;;11.50;81.23;92872.78;517769;28;872;-55
2023/04/18 00:30:12;;;;;;;9.43;6.80;;;;;;;11.50;81.24;92867.25;517758;28;1910;-53
2023/04/18 00:30:29;;;;;;;8.55;6.45;;;;;;;11.51;81.14;92868.75;517843;28;805;-55
2023/04/18 00:30:44;;;;;;;7.03;6.03;;;;;;;11.52;81.27;92870.19;516959;28;1103;-53
2023/04/18 00:31:00;;;;;;;7.13;5.97;;;;;;;11.52;81.09;92870.19;515783;28;904;-56
2023/04/18 00:31:15;;;;;;;7.57;5.90;;;;;;;11.54;80.99;92875.16;515780;28;943;-56
2023/04/18 00:31:31;;;;;;;6.80;6.00;;;;;;;11.54;80.94;92867.59;515839;28;818;-55
2023/04/18 00:31:46;;;;;;;6.80;6.10;;;;;;;11.54;80.82;92869.63;515699;28;828;-55
2023/04/18 00:32:02;;;;;;;6.70;6.00;;;;;;;11.56;80.92;92869.81;515782;28;916;-55
2023/04/18 00:32:18;;;;;;;6.60;5.88;;;;;;;11.55;80.94;92868.31;515809;28;959;-55
2023/04/18 00:32:33;;;;;;;8.00;6.18;;;;;;;11.55;80.87;92868.31;515773;28;1699;-55
2023/04/18 00:32:49;;;;;;;8.40;6.70;;;;;;;11.53;80.82;92870.91;515835;28;832;-56
2023/04/18 00:33:05;;;;;;;7.25;6.18;;;;;;;11.52;80.71;92861.19;515798;28;949;-53
2023/04/18 00:33:20;;;;;;;7.95;5.82;;;;;;;11.55;80.89;92871.09;515641;28;1705;-55
2023/04/18 00:33:35;;;;;;;8.10;6.20;;;;;;;11.55;80.76;92873.84;515800;28;893;-53
2023/04/18 00:33:51;;;;;;;7.20;6.40;;;;;;;11.55;80.81;92865.56;515646;28;919;-53
2023/04/18 00:34:06;;;;;;;6.93;6.22;;;;;;;11.52;80.98;92870.19;515908;28;909;-53
2023/04/18 00:34:22;;;;;;;6.70;6.00;;;;;;;11.51;80.89;92870.75;515749;28;881;-54
2023/04/18 00:34:39;;;;;;;6.95;6.00;;;;;;;11.45;81.05;92859.97;515796;28;864;-54
2023/04/18 00:34:54;;;;;;;8.25;6.30;;;;;;;11.49;80.99;92865.81;515818;28;819;-55
2023/04/18 00:35:10;;;;;;;7.97;6.40;;;;;;;11.48;81.21;92867.09;515802;28;1048;-55
2023/04/18 00:35:25;;;;;;;7.93;6.60;;;;;;;11.49;81.37;92868.56;515772;28;877;-56
2023/04/18 00:35:41;;;;;;;7.17;6.43;;;;;;;11.48;81.20;92869.88;515815;28;824;-55
2023/04/18 00:35:56;;;;;;;7.57;6.67;;;;;;;11.44;81.16;92872.31;515755;28;837;-55
2023/04/18 00:36:11;;;;;;;8.00;7.03;;;;;;;11.41;81.43;92865.16;515708;28;877;-55
2023/04/18 00:36:28;;;;;;;7.67;6.87;;;;;;;11.41;81.67;92871.41;515730;28;1301;-54
2023/04/18 00:36:43;;;;;;;7.20;6.50;;;;;;;11.42;81.63;92861.09;517491;28;1246;-55
2023/04/18 00:36:58;;;;;;;7.13;6.43;;;;;;;11.43;81.43;92868.09;517682;28;1663;-56
2023/04/18 00:37:14;;;;;;;7.70;6.53;;;;;;;11.44;81.60;92861.97;517635;28;861;-55
2023/04/18 00:37:29;;;;;;;7.53;6.43;;;;;;;11.43;81.55;92863.28;517612;28;843;-55
2023/04/18 00:37:44;;;;;;;8.43;6.60;;;;;;;11.47;81.40;92865.66;517694;28;777;-54
2023/04/18 00:38:00;;;;;;;9.10;6.73;;;;;;;11.48;81.29;92869.88;517529;28;940;-55
2023/04/18 00:38:15;;;;;;;8.95;7.53;;;;;;;11.50;81.25;92866.56;517252;28;983;-54
2023/04/18 00:38:31;;;;;;;10.43;8.70;;;;;;;11.51;81.18;92862.47;517325;28;884;-55
2023/04/18 00:38:46;;;;;;;10.65;8.90;;;;;;;11.52;80.91;92861.91;515871;28;806;-55
2023/04/18 00:39:02;;;;;;;10.80;8.93;;;;;;;11.54;80.87;92867.59;515755;28;983;-54
2023/04/18 00:39:17;;;;;;;11.50;9.17;;;;;;;11.53;80.73;92860.59;515819;28;952;-54
2023/04/18 00:39:34;;;;;;;10.27;8.77;;;;;;;11.39;80.72;92846.38;515794;28;799;-54
2023/04/18 00:39:52;;;;;;;9.00;7.97;;;;;;;11.54;80.74;92870.38;515739;28;890;-53
2023/04/18 00:40:08;;;;;;;9.35;7.85;;;;;;;11.51;80.66;92868.00;515782;28;882;-56
2023/04/18 00:40:24;;;;;;;9.05;8.05;;;;;;;11.46;80.89;92864.19;515767;28;856;-55
2023/04/18 00:40:39;;;;;;;9.13;8.23;;;;;;;11.46;81.05;92861.41;515789;28;793;-55
2023/04/18 00:40:55;;;;;;;11.20;9.30;;;;;;;11.44;81.26;92859.22;515823;28;826;-54
2023/04/18 00:41:10;;;;;;;20.90;12.23;;;;;;;11.46;81.39;92860.69;515781;28;888;-55
2023/04/18 00:41:27;;;;;;;30.45;15.10;;;;;;;11.46;81.44;92857.94;515843;28;777;-54
2023/04/18 00:41:42;;;;;;;69.53;29.20;;;;;;;11.46;81.40;92866.94;515748;28;880;-54
2023/04/18 00:41:57;;;;;;;97.40;39.77;;;;;;;11.47;81.44;92860.13;515708;28;951;-53
2023/04/18 00:42:13;;;;;;;101.35;41.78;;;;;;;11.49;81.60;92865.06;515787;28;960;-54
2023/04/18 00:42:28;;;;;;;99.23;42.27;;;;;;;11.49;81.44;92865.81;515848;28;864;-55
2023/04/18 00:42:43;;;;;;;84.07;37.57;;;;;;;11.51;81.31;92865.97;515770;28;762;-56
2023/04/18 00:42:59;;;;;;;75.97;34.00;;;;;;;11.52;81.37;92864.66;515760;28;868;-55
2023/04/18 00:43:15;;;;;;;71.87;32.53;;;;;;;11.51;81.21;92865.97;515798;28;864;-53
2023/04/18 00:43:33;;;;;;;62.30;29.67;;;;;;;11.48;81.11;92867.09;515731;28;956;-54
2023/04/18 00:43:49;;;;;;;48.40;23.58;;;;;;;11.48;81.33;92863.63;515701;28;937;-55
2023/04/18 00:44:05;;;;;;;38.33;19.60;;;;;;;11.45;81.12;92859.97;515778;28;810;-54
2023/04/18 00:44:20;;;;;;;34.20;18.35;;;;;;;11.44;81.29;92856.47;515830;28;766;-56
2023/04/18 00:44:35;;;;;;;40.03;20.83;;;;;;;11.45;81.30;92857.19;515756;28;822;-55
2023/04/18 00:44:51;;;;;;;35.70;19.42;;;;;;;11.43;81.29;92859.81;515839;28;832;-55
2023/04/18 00:45:07;;;;;;;33.90;19.20;;;;;;;11.43;81.32;92859.81;515783;28;985;-56
2023/04/18 00:45:22;;;;;;;34.35;18.20;;;;;;;11.40;81.54;92855.41;515738;28;882;-55
2023/04/18 00:45:37;;;;;;;21.07;12.27;;;;;;;11.32;81.73;92860.28;515785;28;849;-53
2023/04/18 00:45:53;;;;;;;16.15;10.38;;;;;;;11.27;81.87;92855.72;515562;28;1361;-56
2023/04/18 00:46:09;;;;;;;16.97;10.40;;;;;;;11.27;81.91;92864.00;515795;28;795;-55
2023/04/18 00:46:25;;;;;;;18.30;11.43;;;;;;;11.27;82.31;92861.25;515760;28;1085;-54
2023/04/18 00:46:40;;;;;;;19.23;12.32;;;;;;;11.28;82.30;92859.94;515743;28;1139;-56
2023/04/18 00:46:55;;;;;;;20.17;12.00;;;;;;;11.29;82.14;92866.94;515831;28;844;-55
2023/04/18 00:47:11;;;;;;;18.80;10.82;;;;;;;11.27;82.33;92861.25;515839;28;829;-54
2023/04/18 00:47:26;;;;;;;14.60;9.87;;;;;;;11.26;82.41;92863.25;515847;28;1571;-55
2023/04/18 00:47:42;;;;;;;11.90;8.70;;;;;;;11.27;82.33;92861.25;515770;28;864;-54
2023/04/18 00:47:57;;;;;;;10.18;7.75;;;;;;;11.26;82.51;92857.72;515760;28;821;-55
2023/04/18 00:48:12;;;;;;;10.57;7.17;;;;;;;11.24;82.52;92854.81;515681;28;1178;-55
2023/04/18 00:48:29;;;;;;;12.02;6.88;;;;;;;11.24;82.53;92862.38;515807;28;798;-56
2023/04/18 00:48:45;;;;;;;9.98;6.85;;;;;;;11.24;82.65;92857.56;515748;28;1687;-53
2023/04/18 00:49:00;;;;;;;8.32;6.97;;;;;;;11.25;82.78;92853.53;515777;28;940;-55
2023/04/18 00:49:15;;;;;;;10.20;7.73;;;;;;;11.27;82.48;92855.72;515654;28;826;-55
2023/04/18 00:49:31;;;;;;;13.30;9.27;;;;;;;11.28;82.68;92851.66;515668;28;872;-54
2023/04/18 00:49:47;;;;;;;13.13;9.23;;;;;;;11.31;82.49;92853.28;515591;28;950;-56
2023/04/18 00:50:02;;;;;;;11.52;8.35;;;;;;;11.32;82.43;92857.50;515498;28;1927;-55
2023/04/18 00:50:18;;;;;;;13.45;9.50;;;;;;;11.33;82.52;92856.94;515612;28;1290;-55
2023/04/18 00:50:36;;;;;;;14.70;10.43;;;;;;;11.36;82.56;92850.28;515639;28;888;-55
2023/04/18 00:50:52;;;;;;;14.98;9.70;;;;;;;11.38;82.42;92850.44;513615;28;1034;-55
2023/04/18 00:51:08;;;;;;;13.77;9.02;;;;;;;11.40;82.37;92853.38;514436;28;964;-55
2023/04/18 00:51:24;;;;;;;12.80;9.05;;;;;;;11.41;82.25;92857.59;515584;28;1111;-55
2023/04/18 00:51:39;;;;;;;12.38;8.45;;;;;;;11.42;82.17;92850.03;515532;28;916;-56
2023/04/18 00:51:55;;;;;;;11.50;8.57;;;;;;;11.44;82.21;92852.94;515468;28;789;-56
2023/04/18 00:52:11;;;;;;;10.43;8.90;;;;;;;11.46;82.10;92860.69;515657;28;849;-54
2023/04/18 00:52:27;;;;;;;11.18;8.80;;;;;;;11.46;81.96;92855.88;515708;28;778;-54
2023/04/18 00:52:43;;;;;;;12.10;8.90;;;;;;;11.47;81.90;92851.09;514245;28;979;-54
2023/04/18 00:52:58;;;;;;;12.63;9.27;;;;;;;11.44;81.94;92850.19;515725;28;924;-56
2023/04/18 00:53:14;;;;;;;12.33;8.90;;;;;;;11.33;82.04;92831.31;515533;28;849;-55
2023/04/18 00:53:30;;;;;;;12.18;8.82;;;;;;;11.44;82.04;92850.19;515609;28;824;-56
2023/04/18 00:53:45;;;;;;;13.20;9.43;;;;;;;11.42;81.96;92845.25;515547;28;887;-55
2023/04/18 00:54:03;;;;;;;14.05;10.20;;;;;;;11.42;82.17;92850.78;515640;28;822;-55
2023/04/18 00:54:19;;;;;;;19.08;11.90;;;;;;;11.42;82.07;92847.25;513588;28;880;-55
2023/04/18 00:54:34;;;;;;;22.70;13.18;;;;;;;11.42;82.16;92850.03;514372;28;919;-55
2023/04/18 00:54:50;;;;;;;20.17;13.15;;;;;;;11.41;82.05;92848.59;513569;28;1101;-56
2023/04/18 00:55:06;;;;;;;19.15;13.05;;;;;;;11.41;82.37;92848.59;514962;28;1290;-55
2023/04/18 00:55:23;;;;;;;20.77;13.57;;;;;;;11.38;82.44;92855.22;515581;28;893;-54
2023/04/18 00:55:39;;;;;;;22.10;14.18;;;;;;;11.36;82.65;92849.53;515659;28;879;-56
2023/04/18 00:55:54;;;;;;;21.73;14.50;;;;;;;11.35;82.59;92853.59;515528;28;987;-55
2023/04/18 00:56:10;;;;;;;25.17;14.70;;;;;;;11.32;82.95;92849.97;515671;28;843;-55
2023/04/18 00:56:26;;;;;;;31.55;15.40;;;;;;;11.30;82.72;92855.28;516398;28;829;-54
2023/04/18 00:56:41;;;;;;;30.58;16.40;;;;;;;11.29;83.02;92847.59;515548;28;937;-55
2023/04/18 00:56:57;;;;;;;30.83;17.63;;;;;;;11.27;83.21;92850.19;513497;28;2370;-55
2023/04/18 00:57:12;;;;;;;32.83;18.43;;;;;;;11.24;83.42;92854.81;513624;28;880;-52
2023/04/18 00:57:28;;;;;;;32.25;18.38;;;;;;;11.22;83.27;92853.91;513470;28;1155;-55
2023/04/18 00:57:43;;;;;;;29.33;17.80;;;;;;;11.22;83.58;92859.44;513612;28;1131;-55
2023/04/18 00:57:59;;;;;;;29.13;17.47;;;;;;;11.20;83.61;92850.97;513551;28;1524;-54
2023/04/18 00:58:15;;;;;;;29.65;18.17;;;;;;;11.14;83.64;92853.25;513963;28;841;-54
2023/04/18 00:58:31;;;;;;;31.75;19.38;;;;;;;11.13;84.01;92851.81;513593;28;850;-54
2023/04/18 00:58:46;;;;;;;30.73;18.07;;;;;;;11.10;84.14;92852.94;513646;28;888;-55
2023/04/18 00:59:02;;;;;;;27.00;16.63;;;;;;;11.05;84.17;92853.88;513574;28;876;-54
2023/04/18 00:59:18;;;;;;;22.33;14.52;;;;;;;11.03;84.54;92850.97;513629;28;801;-56
2023/04/18 00:59:34;;;;;;;21.60;13.70;;;;;;;10.89;84.68;92827.72;513617;28;809;-55
2023/04/18 00:59:50;;;;;;;21.13;13.32;;;;;;;11.01;84.88;92853.56;513503;28;898;-54
2023/04/18 01:00:09;;;;;;;16.75;11.55;;;;;;;11.01;84.96;92850.78;514363;28;1596;-55
2023/04/18 01:00:25;;;;;;;16.00;11.40;;;;;;;11.02;85.12;92852.97;515699;28;878;-55
2023/04/18 01:00:41;;;;;;;15.75;11.18;;;;;;;11.04;85.09;92844.16;515792;28;965;-55
2023/04/18 01:00:56;;;;;;;14.68;10.30;;;;;;;11.05;85.17;92851.13;515771;28;865;-55
2023/04/18 01:01:12;;;;;;;15.07;9.90;;;;;;;11.05;85.06;92853.88;515760;28;812;-52
2023/04/18 01:01:27;;;;;;;14.87;9.83;;;;;;;11.08;85.17;92850.75;515887;28;805;-55
2023/04/18 01:01:43;;;;;;;13.00;9.38;;;;;;;11.08;84.97;92850.00;515774;28;801;-55
2023/04/18 01:02:00;;;;;;;10.90;8.65;;;;;;;11.08;85.01;92850.00;515717;28;852;-56
2023/04/18 01:02:16;;;;;;;10.52;8.55;;;;;;;11.08;84.77;92847.97;515666;28;882;-56
2023/04/18 01:02:32;;;;;;;12.57;8.48;;;;;;;11.06;84.90;92841.56;515656;28;810;-55
2023/04/18 01:02:51;;;;;;;11.38;8.00;;;;;;;11.10;84.98;92848.13;515599;28;810;-55
2023/04/18 01:03:07;;;;;;;10.73;8.23;;;;;;;11.10;84.94;92848.13;515624;28;1394;-54
2023/04/18 01:03:22;;;;;;;11.63;8.33;;;;;;;11.11;84.91;92849.59;515594;28;1091;-55
2023/04/18 01:03:38;;;;;;;9.80;7.90;;;;;;;11.12;84.84;92847.56;515604;28;876;-56
2023/04/18 01:03:53;;;;;;;9.03;7.80;;;;;;;11.14;84.68;92850.50;515549;28;774;-55
2023/04/18 01:04:09;;;;;;;9.73;8.20;;;;;;;11.15;84.63;92849.91;515720;28;846;-55
2023/04/18 01:04:24;;;;;;;10.43;8.23;;;;;;;11.16;84.50;92847.91;515760;28;962;-55
2023/04/18 01:04:42;;;;;;;10.00;8.00;;;;;;;11.17;84.65;92847.34;515775;28;868;-54
2023/04/18 01:04:58;;;;;;;12.13;8.10;;;;;;;11.18;84.65;92850.81;515753;28;915;-55
2023/04/18 01:05:13;;;;;;;11.65;7.97;;;;;;;11.11;84.48;92835.06;515828;28;867;-55
2023/04/18 01:05:29;;;;;;;8.93;7.47;;;;;;;11.21;84.23;92853.19;515778;28;824;-55
2023/04/18 01:05:45;;;;;;;10.77;7.93;;;;;;;11.23;84.11;92847.09;515735;28;1655;-56
2023/04/18 01:06:00;;;;;;;10.60;7.87;;;;;;;11.25;84.21;92847.25;515767;28;967;-55
2023/04/18 01:06:16;;;;;;;9.95;7.70;;;;;;;11.26;83.96;92854.25;515834;28;941;-54
2023/04/18 01:06:32;;;;;;;9.43;7.43;;;;;;;11.28;84.07;92848.91;515764;28;819;-55
2023/04/18 01:06:47;;;;;;;10.73;7.67;;;;;;;11.29;83.92;92844.81;515606;28;856;-55
2023/04/18 01:07:03;;;;;;;10.63;7.47;;;;;;;11.31;83.88;92853.28;515609;28;864;-56
2023/04/18 01:07:18;;;;;;;8.13;7.30;;;;;;;11.31;83.60;92845.72;515605;28;1005;-55
2023/04/18 01:07:36;;;;;;;9.55;8.13;;;;;;;11.32;83.60;92841.66;515566;28;1613;-55
2023/04/18 01:07:51;;;;;;;11.98;7.88;;;;;;;11.34;83.41;92844.59;515467;28;1070;-55
2023/04/18 01:08:07;;;;;;;12.70;7.90;;;;;;;11.35;83.10;92845.31;513630;28;885;-55
2023/04/18 01:08:23;;;;;;;10.80;7.78;;;;;;;11.36;83.17;92844.03;511643;29;976;-56
2023/04/18 01:08:39;;;;;;;11.90;7.55;;;;;;;11.37;82.92;92843.44;510408;28;845;-54
2023/04/18 01:08:55;;;;;;;12.30;7.82;;;;;;;11.38;82.90;92849.72;509568;29;945;-55
2023/04/18 01:09:12;;;;;;;9.40;7.60;;;;;;;11.40;82.80;92852.63;507694;29;909;-55
2023/04/18 01:09:28;;;;;;;9.63;7.68;;;;;;;11.41;82.72;92851.34;505751;29;877;-56
2023/04/18 01:09:43;;;;;;;9.90;8.07;;;;;;;11.28;82.59;92824.03;505684;29;937;-55
2023/04/18 01:09:59;;;;;;;9.00;7.80;;;;;;;11.43;82.95;92848.75;506429;29;849;-54
2023/04/18 01:10:14;;;;;;;9.07;7.63;;;;;;;11.43;82.61;92845.97;506514;29;1970;-56
2023/04/18 01:10:30;;;;;;;8.63;7.37;;;;;;;11.44;82.44;92847.44;508446;29;820;-55
2023/04/18 01:10:45;;;;;;;9.32;7.05;;;;;;;11.45;82.38;92848.91;510335;29;923;-56
2023/04/18 01:11:01;;;;;;;11.50;7.90;;;;;;;11.23;82.26;92811.91;512234;28;900;-53
2023/04/18 01:11:16;;;;;;;10.38;8.38;;;;;;;11.47;82.36;92845.56;514033;28;1150;-54
2023/04/18 01:11:32;;;;;;;9.03;7.83;;;;;;;11.48;82.37;92847.03;515634;28;867;-54
2023/04/18 01:11:47;;;;;;;9.73;7.50;;;;;;;11.47;82.62;92849.06;515572;28;876;-56
2023/04/18 01:12:03;;;;;;;10.23;7.50;;;;;;;11.48;82.54;92858.81;515598;28;888;-54
2023/04/18 01:12:18;;;;;;;10.13;8.00;;;;;;;11.49;82.71;92851.25;515817;28;924;-55
2023/04/18 01:12:33;;;;;;;10.50;8.40;;;;;;;11.50;82.49;92845.16;515709;28;881;-56
2023/04/18 01:12:49;;;;;;;10.00;8.30;;;;;;;11.49;82.74;92849.22;515765;28;883;-55
2023/04/18 01:13:12;;;;;;;9.32;7.93;;;;;;;11.42;82.56;92836.94;515815;28;792;-55
2023/04/18 01:13:27;;;;;;;8.85;7.95;;;;;;;11.51;82.61;92852.16;515711;28;962;-56
2023/04/18 01:14:00;;;;;;;8.77;7.80;;;;;;;11.54;82.44;92853.06;515705;28;856;-55
2023/04/18 01:14:17;;;;;;;8.73;7.40;;;;;;;11.53;82.40;92852.31;515737;28;928;-56
2023/04/18 01:14:33;;;;;;;8.75;7.43;;;;;;;11.53;82.25;92851.56;515735;28;892;-53
2023/04/18 01:14:48;;;;;;;8.82;7.40;;;;;;;11.52;82.27;92847.34;515804;28;813;-55
2023/04/18 01:15:04;;;;;;;10.37;7.97;;;;;;;11.47;82.06;92854.59;515643;28;960;-55
2023/04/18 01:15:20;;;;;;;11.05;7.93;;;;;;;11.45;82.23;92848.91;515728;28;963;-53
2023/04/18 01:15:35;;;;;;;10.20;7.30;;;;;;;11.43;82.40;92845.97;515808;28;825;-54
2023/04/18 01:15:52;;;;;;;9.30;7.20;;;;;;;11.43;82.25;92848.75;515661;28;836;-53
2023/04/18 01:16:08;;;;;;;8.70;7.55;;;;;;;11.38;82.40;92847.69;515813;28;864;-55
2023/04/18 01:16:23;;;;;;;9.05;7.63;;;;;;;11.45;82.59;92851.66;515799;28;1034;-56
2023/04/18 01:16:39;;;;;;;8.73;7.73;;;;;;;11.44;82.59;92848.16;515763;28;950;-53
2023/04/18 01:16:54;;;;;;;9.53;8.33;;;;;;;11.45;82.71;92846.13;515799;28;828;-54
2023/04/18 01:17:09;;;;;;;10.13;8.65;;;;;;;11.38;82.80;92839.38;515795;28;876;-55
2023/04/18 01:17:27;;;;;;;9.90;8.63;;;;;;;11.44;82.87;92852.94;515816;28;917;-54
2023/04/18 01:17:42;;;;;;;9.73;8.48;;;;;;;11.44;82.93;92845.41;515780;28;991;-55
2023/04/18 01:17:58;;;;;;;10.27;8.20;;;;;;;11.46;82.99;92850.34;515785;28;785;-55